Decoded Metar for FAOR (TAMBO INTL AIRPT in SOUTH AFRICA) (IATA:JNB) | Meteo·Mobile Aviation Weather
aviador You're here:

FAOR Decoded Metar

TAMBO INTL AIRPT in SOUTH AFRICA
Report Time2019-08-19 19:00:00
UTC Time2019-08-19 19:17:32
Flight Rules vfr VFR
Wind200° at 07 kt
Visibility9999 m
Phenomena:N/A
Clouds:N/A
Expected CloudBase > 8,000 ft AGL from Temp-Dew spread
CeilingNone
Temp16°C (ISA +12)
Dew Point-4°C (25% RH)
AAT11.0°C
QNH1030 hPa
Density Alt6,447 ft
Elevation5,550 ft
Report Wrong Elevation
Raw Report
METAR FAOR 191900Z 20007KT CAVOK 16/M04 Q1030 NOSIG=

Extra information for FAOR:More info

Metar Taf Metar & Taf Last 4 Metars F.Rules Stats Wind Profile Meteogram Temp Stats Airport Information Weather charts Add Link Nearby VenuesMetar ALERT Operation Metar Decoded Social comments